Terminal Aerodrome Forecast
Issued by NWS

Home | Current Version | Previous Version | Text Only | Print | Product List | Glossary On
Versions: 1 2 3 4 5 6 7 8 9 10 11 12 13 14 15 16 17 18 19
000
FTUS45 KABQ 022330
TAFSAF
TAF
KSAF 022330Z 0300/0324 23008KT P6SM SCT060
     FM030400 36010KT P6SM VCSH SCT040 BKN080
     FM030700 36011KT P6SM BKN090
     FM032000 12010KT P6SM VCSH SCT050 BKN090=

USA.gov is the U.S. government's official web portal to all federal, state and local government web resources and services.